Flight Track Log - Related Links

Times and Time Zones

All times are in EDT time to prevent confusion due to time zone crossing. See the FFT918 flight status page for this flight to view local times or setup timezone preferences in your user account.

Time Position Orientation Groundspeed Altitude Reporting Facility
EDT Latitude Longitude Course Direction KTS MPH feet Rate Location/Type
Sat 11:44:24 AM 28.4620 -81.3010 348° North 167 192 1,900  Level FlightAware ADS-B
Sat 11:44:44 AM 28.4780 -81.3050 348° North 184 212 2,400 1,610 Climbing FlightAware ADS-B
Sat 11:45:05 AM 28.4960 -81.3090 349° North 207 238 3,000 1,421 Climbing FlightAware ADS-B
Sat 11:45:22 AM 28.5150 -81.3130 350° North 240 276 3,300 1,692 Climbing FlightAware ADS-B
Sat 11:45:44 AM 28.5400 -81.3170 352° North 264 304 4,100 2,400 Climbing FlightAware ADS-B
Sat 11:45:57 AM 28.5560 -81.3190 354° North 269 310 4,700 3,405 Climbing FlightAware ADS-B
Sat 11:46:21 AM 28.5860 -81.3230 353° North 271 312 6,200 3,545 Climbing FlightAware ADS-B
Sat 11:46:41 AM 28.6110 -81.3260 354° North 272 313 7,300 3,081 Climbing FlightAware ADS-B
Sat 11:46:58 AM 28.6330 -81.3290 353° North 279 321 8,100 2,833 Climbing FlightAware ADS-B
Sat 11:47:17 AM 28.6590 -81.3320 354° North 286 329 9,000 2,786 Climbing FlightAware ADS-B
Sat 11:47:54 AM 28.7060 -81.3380 354° North 296 341 10,700 2,239 Climbing FlightAware ADS-B
Sat 11:48:24 AM 28.7510 -81.3430 354° North 329 379 11,500 2,149 Climbing FlightAware ADS-B
Sat 11:49:01 AM 28.8080 -81.3510 353° North 338 389 13,100 2,432 Climbing FlightAware ADS-B
Sat 11:49:38 AM 28.8680 -81.3580 354° North 352 405 14,500 2,571 Climbing FlightAware ADS-B
Sat 11:50:11 AM 28.9220 -81.3650 354° North 352 405 16,100 2,522 Climbing FlightAware ADS-B
Sat 11:50:47 AM 28.9820 -81.3710 355° North 360 414 17,400 2,197 Climbing FlightAware ADS-B
Sat 11:51:22 AM 29.0370 -81.3790 353° North 366 421 18,700 2,167 Climbing FlightAware ADS-B
Sat 11:51:59 AM 29.1030 -81.3880 353° North 372 428 20,000 1,913 Climbing FlightAware ADS-B
Sat 11:52:31 AM 29.1580 -81.3930 355° North 383 441 20,900 1,565 Climbing FlightAware ADS-B
Sat 11:53:08 AM 29.2260 -81.4000 355° North 398 458 21,800 1,629 Climbing FlightAware ADS-B
Sat 11:53:41 AM 29.2870 -81.4060 355° North 404 465 22,800 1,765 Climbing FlightAware ADS-B
Sat 11:54:16 AM 29.3530 -81.4130 355° North 410 472 23,800 1,750 Climbing FlightAware ADS-B
Sat 11:54:53 AM 29.4220 -81.4200 355° North 414 476 24,900 1,701 Climbing FlightAware ADS-B
Sat 11:55:23 AM 29.4800 -81.4250 356° North 421 484 25,700 1,521 Climbing FlightAware ADS-B
Sat 11:56:04 AM 29.5610 -81.4330 355° North 429 494 26,700 1,479 Climbing FlightAware ADS-B
Sat 11:56:36 AM 29.6260 -81.4400 355° North 433 498 27,500 1,478 Climbing FlightAware ADS-B
Sat 11:57:13 AM 29.6990 -81.4460 356° North 440 506 28,400 1,429 Climbing FlightAware ADS-B
Sat 11:57:39 AM 29.7540 -81.4430 North 444 511 29,000 1,429 Climbing FlightAware ADS-B
Sat 11:58:16 AM 29.8310 -81.4350 North 449 517 29,900 1,233 Climbing FlightAware ADS-B
Sat 11:58:52 AM 29.9050 -81.4280 North 456 525 30,500 1,125 Climbing FlightAware ADS-B
Sat 11:59:20 AM 29.9640 -81.4220 North 457 526 31,100 1,254 Climbing FlightAware ADS-B
Sat 11:59:59 AM 30.0470 -81.4140 North 460 529 31,900 1,378 Climbing FlightAware ADS-B
Sat 12:00:34 PM 30.1200 -81.4070 North 457 526 32,800 1,500 Climbing FlightAware ADS-B
Sat 12:01:11 PM 30.2000 -81.3990 North 456 525 33,700 1,543 Climbing FlightAware ADS-B
Sat 12:01:44 PM 30.2670 -81.3920 North 452 520 34,600 1,478 Climbing FlightAware ADS-B
Sat 12:02:20 PM 30.3420 -81.3840 North 448 516 35,400 1,200 Climbing FlightAware ADS-B
Sat 12:02:54 PM 30.4120 -81.3770 North 450 518 36,000 1,200 Climbing FlightAware ADS-B
Sat 12:03:30 PM 30.4860 -81.3690 North 446 513 36,800 822 Climbing FlightAware ADS-B
Sat 12:04:07 PM 30.5630 -81.3530 10° North 448 516 37,000 174 Climbing FlightAware ADS-B
Sat 12:04:39 PM 30.6280 -81.3380 11° North 447 514 37,000  Level FlightAware ADS-B
Sat 12:05:12 PM 30.6960 -81.3220 11° North 445 512 37,000  Level FlightAware ADS-B
Sat 12:05:50 PM 30.7700 -81.3040 12° North 447 514 37,000  Level FlightAware ADS-B
Sat 12:06:22 PM 30.8370 -81.2880 12° North 447 514 37,000  Level FlightAware ADS-B
Sat 12:06:57 PM 30.9070 -81.2720 11° North 448 516 37,000  Level FlightAware ADS-B
Sat 12:07:33 PM 30.9810 -81.2540 12° North 448 516 37,000  Level FlightAware ADS-B
Sat 12:08:10 PM 31.0580 -81.2360 11° North 448 516 37,000  Level FlightAware ADS-B
Sat 12:08:46 PM 31.1270 -81.2190 12° North 447 514 37,000  Level FlightAware ADS-B
Sat 12:09:18 PM 31.1940 -81.2030 12° North 448 516 37,000  Level FlightAware ADS-B
Sat 12:09:52 PM 31.2600 -81.1880 11° North 448 516 37,000  Level FlightAware ADS-B
Sat 12:10:37 PM 31.3400 -81.1680 12° North 448 516 37,000  Level FlightAware ADS-B
Sat 12:11:02 PM 31.3890 -81.1570 11° North 448 516 37,000  Level FlightAware ADS-B
Sat 12:11:48 PM 31.4890 -81.1330 12° North 447 514 37,000  Level FlightAware ADS-B
Sat 12:12:35 PM 31.5950 -81.1070 12° North 446 513 37,000  Level FlightAware ADS-B
Sat 12:13:12 PM 31.6700 -81.0890 12° North 445 512 37,000  Level FlightAware ADS-B
Sat 12:13:48 PM 31.7420 -81.0720 11° North 443 510 37,000  Level FlightAware ADS-B
Sat 12:14:23 PM 31.8010 -81.0570 12° North 442 509 37,000  Level FlightAware ADS-B
Sat 12:14:55 PM 31.8600 -81.0430 11° North 440 506 37,000  Level FlightAware ADS-B
Sat 12:15:27 PM 31.9350 -81.0250 12° North 438 504 37,000  Level FlightAware ADS-B
Sat 12:16:08 PM 32.0090 -81.0070 12° North 437 503 37,000  Level FlightAware ADS-B
Sat 12:16:39 PM 32.0730 -80.9910 12° North 437 503 37,000  Level FlightAware ADS-B
Sat 12:17:20 PM 32.1540 -80.9710 12° North 438 504 37,000 64 Level FlightAware ADS-B
Sat 12:18:13 PM 32.2700 -80.9430 12° North 435 501 37,100 67 Climbing FlightAware ADS-B
Sat 12:18:49 PM 32.3400 -80.9260 12° North 433 498 37,100  Level FlightAware ADS-B
Sat 12:19:40 PM 32.4390 -80.9020 12° North 427 491 37,100 -31 Level FlightAware ADS-B
Sat 12:22:01 PM 32.7060 -80.8360 12° North 419 482 37,000 -35 Descending FlightAware ADS-B
Sat 12:22:33 PM 32.7680 -80.8200 12° North 421 484 37,000  Level FlightAware ADS-B
Sat 12:23:05 PM 32.8280 -80.8050 12° North 421 484 37,000 83 Level FlightAware ADS-B
Sat 12:23:45 PM 32.9030 -80.7870 11° North 422 486 37,100 83 Climbing FlightAware ADS-B
Sat 12:24:17 PM 32.9640 -80.7720 12° North 421 484 37,100 -87 Level FlightAware ADS-B
Sat 12:24:54 PM 33.0370 -80.7540 12° North 421 484 37,000 -87 Descending FlightAware ADS-B
Sat 12:25:26 PM 33.1000 -80.7380 12° North 422 486 37,000  Level FlightAware ADS-B
Sat 12:26:05 PM 33.1730 -80.7200 12° North 423 487 37,000  Level FlightAware ADS-B
Sat 12:26:40 PM 33.2360 -80.7040 12° North 423 487 37,000  Level FlightAware ADS-B
Sat 12:27:13 PM 33.2970 -80.6890 12° North 422 486 37,000  Level FlightAware ADS-B
Sat 12:27:49 PM 33.3730 -80.6700 12° North 420 483 37,000  Level FlightAware ADS-B
Sat 12:28:24 PM 33.4370 -80.6540 12° North 419 482 37,000  Level FlightAware ADS-B
Sat 12:28:58 PM 33.5030 -80.6370 12° North 418 481 37,000  Level FlightAware ADS-B
Sat 12:29:35 PM 33.5710 -80.6200 12° North 417 480 37,000  Level FlightAware ADS-B
Sat 12:30:05 PM 33.6280 -80.6050 12° North 416 479 37,000  Level FlightAware ADS-B
Sat 12:30:44 PM 33.7010 -80.5870 12° North 416 479 37,000  Level FlightAware ADS-B
Sat 12:31:13 PM 33.7540 -80.5730 12° North 415 478 37,000  Level FlightAware ADS-B
Sat 12:31:48 PM 33.8240 -80.5560 11° North 417 480 37,000  Level FlightAware ADS-B
Sat 12:35:02 PM 34.1890 -80.4520 13° North 419 482 37,000  Level FlightAware ADS-B
Sat 12:35:10 PM 34.2040 -80.4430 26° Northeast 419 482 37,000  Level FlightAware ADS-B
Sat 12:35:22 PM 34.2250 -80.4270 32° Northeast 419 482 37,000  Level FlightAware ADS-B
Sat 12:35:28 PM 34.2340 -80.4210 29° Northeast 419 482 37,000  Level FlightAware ADS-B
Sat 12:35:37 PM 34.2480 -80.4100 33° Northeast 417 480 37,000  Level FlightAware ADS-B
Sat 12:35:54 PM 34.2770 -80.3890 31° Northeast 418 481 37,000  Level FlightAware ADS-B
Sat 12:36:02 PM 34.2890 -80.3800 32° Northeast 417 480 37,000  Level FlightAware ADS-B
Sat 12:36:06 PM 34.2950 -80.3750 35° Northeast 417 480 37,000  Level FlightAware ADS-B
Sat 12:36:10 PM 34.3010 -80.3710 29° Northeast 417 480 37,000  Level FlightAware ADS-B
Sat 12:36:22 PM 34.3240 -80.3540 31° Northeast 416 479 37,000  Level FlightAware ADS-B
Sat 12:36:30 PM 34.3360 -80.3450 32° Northeast 416 479 37,000  Level FlightAware ADS-B
Sat 12:36:34 PM 34.3420 -80.3400 35° Northeast 416 479 37,000  Level FlightAware ADS-B
Sat 12:36:40 PM 34.3530 -80.3320 31° Northeast 415 478 37,000  Level FlightAware ADS-B
Sat 12:36:50 PM 34.3680 -80.3200 33° Northeast 415 478 37,000  Level FlightAware ADS-B
Sat 12:36:54 PM 34.3750 -80.3150 31° Northeast 415 478 37,000  Level FlightAware ADS-B
Sat 12:37:02 PM 34.3870 -80.3060 32° Northeast 415 478 37,000  Level FlightAware ADS-B
Sat 12:37:06 PM 34.3940 -80.3010 31° Northeast 415 478 37,000  Level FlightAware ADS-B
Sat 12:37:16 PM 34.4120 -80.2880 31° Northeast 414 476 37,000  Level FlightAware ADS-B
Sat 12:37:24 PM 34.4240 -80.2780 35° Northeast 414 476 37,000  Level FlightAware ADS-B
Sat 12:37:32 PM 34.4370 -80.2690 30° Northeast 414 476 37,000  Level FlightAware ADS-B
Sat 12:37:36 PM 34.4430 -80.2640 34° Northeast 414 476 37,000  Level FlightAware ADS-B
Sat 12:37:40 PM 34.4500 -80.2580 35° Northeast 415 478 37,000  Level FlightAware ADS-B
Sat 12:37:52 PM 34.4690 -80.2450 29° Northeast 414 476 37,000  Level FlightAware ADS-B
Sat 12:38:00 PM 34.4830 -80.2340 33° Northeast 414 476 37,000  Level FlightAware ADS-B
Sat 12:38:08 PM 34.4950 -80.2250 32° Northeast 415 478 37,000  Level FlightAware ADS-B
Sat 12:38:10 PM 34.4990 -80.2220 32° Northeast 415 478 37,000  Level FlightAware ADS-B
Sat 12:38:20 PM 34.5150 -80.2100 32° Northeast 415 478 37,000  Level FlightAware ADS-B
Sat 12:38:29 PM 34.5290 -80.1990 33° Northeast 415 478 37,000  Level FlightAware ADS-B
Sat 12:38:33 PM 34.5350 -80.1950 29° Northeast 415 478 37,000  Level FlightAware ADS-B
Sat 12:38:41 PM 34.5470 -80.1850 34° Northeast 415 478 37,000  Level FlightAware ADS-B
Sat 12:38:49 PM 34.5620 -80.1740 31° Northeast 415 478 37,000  Level FlightAware ADS-B
Sat 12:38:57 PM 34.5730 -80.1660 31° Northeast 417 480 37,000  Level FlightAware ADS-B
Sat 12:39:01 PM 34.5810 -80.1600 32° Northeast 417 480 37,000  Level FlightAware ADS-B
Sat 12:39:09 PM 34.5960 -80.1490 31° Northeast 417 480 37,000  Level FlightAware ADS-B
Sat 12:39:17 PM 34.6090 -80.1390 32° Northeast 417 480 37,000  Level FlightAware ADS-B
Sat 12:39:21 PM 34.6140 -80.1350 33° Northeast 419 482 37,000  Level FlightAware ADS-B
Sat 12:39:29 PM 34.6260 -80.1260 32° Northeast 419 482 37,000  Level FlightAware ADS-B
Sat 12:39:37 PM 34.6410 -80.1140 33° Northeast 419 482 37,000  Level FlightAware ADS-B
Sat 12:39:45 PM 34.6530 -80.1050 32° Northeast 420 483 37,000  Level FlightAware ADS-B
Sat 12:39:49 PM 34.6610 -80.0990 32° Northeast 420 483 37,000  Level FlightAware ADS-B
Sat 12:39:57 PM 34.6740 -80.0890 32° Northeast 421 484 37,000  Level FlightAware ADS-B
Sat 12:40:05 PM 34.6870 -80.0800 30° Northeast 421 484 37,000  Level FlightAware ADS-B
Sat 12:40:11 PM 34.6960 -80.0720 36° Northeast 422 486 37,000  Level FlightAware ADS-B
Sat 12:40:15 PM 34.7060 -80.0650 30° Northeast 422 486 37,000  Level FlightAware ADS-B
Sat 12:40:23 PM 34.7170 -80.0570 31° Northeast 422 486 37,000  Level FlightAware ADS-B
Sat 12:40:33 PM 34.7310 -80.0460 33° Northeast 423 487 37,000  Level FlightAware ADS-B
Sat 12:40:37 PM 34.7400 -80.0390 33° Northeast 422 486 37,000  Level FlightAware ADS-B
Sat 12:40:47 PM 34.7570 -80.0270 30° Northeast 423 487 37,000  Level FlightAware ADS-B
Sat 12:40:55 PM 34.7710 -80.0160 33° Northeast 424 488 37,000 500 Level FlightAware ADS-B
Sat 12:40:59 PM 34.7780 -80.0110 30° Northeast 424 488 37,100 500 Climbing FlightAware ADS-B
Sat 12:41:07 PM 34.7890 -80.0020 34° Northeast 424 488 37,100  Level FlightAware ADS-B
Sat 12:41:11 PM 34.7970 -79.9960 32° Northeast 424 488 37,100  Level FlightAware ADS-B
Sat 12:41:21 PM 34.8120 -79.9850 31° Northeast 423 487 37,100  Level FlightAware ADS-B
Sat 12:41:29 PM 34.8280 -79.9730 32° Northeast 423 487 37,100  Level FlightAware ADS-B
Sat 12:41:37 PM 34.8380 -79.9640 36° Northeast 423 487 37,100  Level FlightAware ADS-B
Sat 12:41:41 PM 34.8480 -79.9570 30° Northeast 422 486 37,100  Level FlightAware ADS-B
Sat 12:41:49 PM 34.8610 -79.9470 32° Northeast 422 486 37,100 -130 Level FlightAware ADS-B
Sat 12:42:27 PM 34.9240 -79.8990 32° Northeast 422 486 37,000 -85 Descending FlightAware ADS-B
Sat 12:43:00 PM 34.9780 -79.8580 32° Northeast 421 484 37,000  Level FlightAware ADS-B
Sat 12:43:36 PM 35.0380 -79.8120 32° Northeast 420 483 37,000  Level FlightAware ADS-B
Sat 12:44:18 PM 35.0980 -79.7660 32° Northeast 419 482 37,000  Level FlightAware ADS-B
Sat 12:44:50 PM 35.1540 -79.7230 32° Northeast 419 482 37,000  Level FlightAware ADS-B
Sat 12:45:26 PM 35.2110 -79.6790 32° Northeast 419 482 37,000  Level FlightAware ADS-B
Sat 12:46:16 PM 35.2850 -79.6220 32° Northeast 418 481 37,000  Level FlightAware ADS-B
Sat 12:46:51 PM 35.3510 -79.5710 32° Northeast 420 483 37,000  Level FlightAware ADS-B
Sat 12:47:31 PM 35.4190 -79.5180 32° Northeast 420 483 37,000  Level FlightAware ADS-B
Sat 12:48:06 PM 35.4730 -79.4760 32° Northeast 419 482 37,000  Level FlightAware ADS-B
Sat 12:48:40 PM 35.5340 -79.4290 32° Northeast 417 480 37,000  Level FlightAware ADS-B
Sat 12:49:17 PM 35.5910 -79.3840 33° Northeast 416 479 37,000  Level FlightAware ADS-B
Sat 12:49:50 PM 35.6460 -79.3410 32° Northeast 416 479 37,000  Level FlightAware ADS-B
Sat 12:50:38 PM 35.7150 -79.2880 32° Northeast 416 479 37,000  Level FlightAware ADS-B
Sat 12:51:08 PM 35.7710 -79.2440 33° Northeast 416 479 37,000  Level FlightAware ADS-B
Sat 12:51:43 PM 35.8290 -79.1980 33° Northeast 416 479 37,000  Level FlightAware ADS-B
Sat 12:52:18 PM 35.8860 -79.1530 33° Northeast 419 482 37,000  Level FlightAware ADS-B
Sat 12:52:53 PM 35.9410 -79.1100 32° Northeast 420 483 37,000  Level FlightAware ADS-B
Sat 12:53:28 PM 36.0020 -79.0620 32° Northeast 421 484 37,000 86 Level FlightAware ADS-B
Sat 12:54:03 PM 36.0590 -79.0170 33° Northeast 421 484 37,100 86 Climbing FlightAware ADS-B
Sat 12:54:38 PM 36.1170 -78.9710 33° Northeast 420 483 37,100  Level FlightAware ADS-B
Sat 12:55:13 PM 36.1740 -78.9260 33° Northeast 418 481 37,100 -87 Level FlightAware ADS-B
Sat 12:55:47 PM 36.2310 -78.8810 32° Northeast 409 471 37,000 -86 Descending FlightAware ADS-B
Sat 12:56:23 PM 36.2870 -78.8360 33° Northeast 407 468 37,000  Level FlightAware ADS-B
Sat 12:56:58 PM 36.3410 -78.7930 33° Northeast 406 467 37,000  Level FlightAware ADS-B
Sat 12:57:33 PM 36.4000 -78.7460 33° Northeast 406 467 37,000  Level FlightAware ADS-B
Sat 12:58:08 PM 36.4530 -78.7030 33° Northeast 406 467 37,000  Level FlightAware ADS-B
Sat 12:58:41 PM 36.5110 -78.6570 33° Northeast 412 474 37,000 91 Level FlightAware ADS-B
Sat 12:59:14 PM 36.5630 -78.6150 33° Northeast 410 472 37,100 80 Climbing FlightAware ADS-B
Sat 12:59:56 PM 36.6320 -78.5600 33° Northeast 407 468 37,100 -79 Level FlightAware ADS-B
Sat 01:00:30 PM 36.6850 -78.5180 32° Northeast 404 465 37,000 -94 Descending FlightAware ADS-B
Sat 01:01:00 PM 36.7300 -78.4810 33° Northeast 402 463 37,000  Level FlightAware ADS-B
Sat 01:01:56 PM 36.8110 -78.4170 32° Northeast 400 460 37,000  Level FlightAware ADS-B
Sat 01:02:32 PM 36.8590 -78.3790 32° Northeast 400 460 37,000  Level FlightAware ADS-B
Sat 01:03:08 PM 36.9070 -78.3420 32° Northeast 400 460 37,000  Level FlightAware ADS-B
Sat 01:04:00 PM 37.0110 -78.2540 34° Northeast 405 466 37,000 67 Level FlightAware ADS-B
Sat 01:04:37 PM 37.0700 -78.2050 34° Northeast 403 464 37,100 85 Climbing FlightAware ADS-B
Sat 01:05:11 PM 37.1230 -78.1620 33° Northeast 402 463 37,100 -254 Level FlightAware ADS-B
Sat 01:06:59 PM 37.2900 -78.0250 33° Northeast 392 451 36,500 -471 Descending FlightAware ADS-B
Sat 01:07:31 PM 37.3370 -77.9860 33° Northeast 392 451 36,000 -1,588 Descending FlightAware ADS-B
Sat 01:08:07 PM 37.3930 -77.9400 33° Northeast 395 455 34,700 -2,471 Descending FlightAware ADS-B
Sat 01:08:39 PM 37.4440 -77.8980 33° Northeast 399 459 33,200 -2,647 Descending FlightAware ADS-B
Sat 01:09:15 PM 37.4990 -77.8530 33° Northeast 396 456 31,700 -1,886 Descending FlightAware ADS-B
Sat 01:09:49 PM 37.5500 -77.8090 34° Northeast 401 461 31,000 -583 Descending FlightAware ADS-B
Sat 01:10:27 PM 37.6080 -77.7570 35° Northeast 400 460 31,000  Level FlightAware ADS-B
Sat 01:10:58 PM 37.6530 -77.7150 36° Northeast 412 474 31,000  Level FlightAware ADS-B
Sat 01:11:30 PM 37.7040 -77.6700 35° Northeast 415 478 31,000  Level FlightAware ADS-B
Sat 01:12:17 PM 37.7770 -77.6040 36° Northeast 415 478 31,000  Level FlightAware ADS-B
Sat 01:12:54 PM 37.8290 -77.5560 36° Northeast 416 479 31,000  Level FlightAware ADS-B
Sat 01:13:31 PM 37.8900 -77.5000 36° Northeast 416 479 31,000  Level FlightAware ADS-B
Sat 01:14:07 PM 37.9500 -77.4460 35° Northeast 417 480 31,000  Level FlightAware ADS-B
Sat 01:14:39 PM 37.9990 -77.4010 36° Northeast 416 479 31,000  Level FlightAware ADS-B
Sat 01:15:15 PM 38.0550 -77.3490 36° Northeast 416 479 31,000  Level FlightAware ADS-B
Sat 01:15:49 PM 38.1090 -77.3000 36° Northeast 418 481 31,000  Level FlightAware ADS-B
Sat 01:16:27 PM 38.1670 -77.2460 36° Northeast 416 479 31,000  Level FlightAware ADS-B
Sat 01:17:01 PM 38.2210 -77.1970 35° Northeast 416 479 31,000  Level FlightAware ADS-B
Sat 01:17:37 PM 38.2760 -77.1460 36° Northeast 415 478 31,000  Level FlightAware ADS-B
Sat 01:18:08 PM 38.3240 -77.1010 36° Northeast 417 480 31,000  Level FlightAware ADS-B
Sat 01:18:45 PM 38.3820 -77.0470 36° Northeast 419 482 31,000 -348 Level FlightAware ADS-B
Sat 01:19:17 PM 38.4330 -77.0000 36° Northeast 417 480 30,600 -1,286 Descending FlightAware ADS-B
Sat 01:19:55 PM 38.4920 -76.9450 36° Northeast 414 476 29,500 -2,027 Descending FlightAware ADS-B
Sat 01:20:31 PM 38.5470 -76.8940 36° Northeast 407 468 28,100 -2,348 Descending FlightAware ADS-B
Sat 01:21:04 PM 38.5960 -76.8480 36° Northeast 404 465 26,800 -2,400 Descending FlightAware ADS-B
Sat 01:21:41 PM 38.6530 -76.7940 36° Northeast 402 463 25,300 -2,348 Descending FlightAware ADS-B
Sat 01:22:13 PM 38.6970 -76.7470 40° Northeast 397 457 24,100 -2,125 Descending FlightAware ADS-B
Sat 01:22:29 PM 38.7110 -76.7140 61° Northeast 397 457 23,600 -1,800 Descending FlightAware ADS-B
Sat 01:23:03 PM 38.7280 -76.6360 74° East 401 461 22,600 -1,714 Descending FlightAware ADS-B
Sat 01:23:39 PM 38.7460 -76.5520 75° East 396 456 21,600 -1,667 Descending FlightAware ADS-B
Sat 01:24:15 PM 38.7630 -76.4720 75° East 394 453 20,600 -1,750 Descending FlightAware ADS-B
Sat 01:24:51 PM 38.7800 -76.3900 75° East 388 447 19,500 -1,676 Descending FlightAware ADS-B
Sat 01:25:23 PM 38.7940 -76.3220 75° East 380 437 18,700 -1,652 Descending FlightAware ADS-B
Sat 01:26:00 PM 38.8100 -76.2410 76° East 377 434 17,600 -1,690 Descending FlightAware ADS-B
Sat 01:26:34 PM 38.8250 -76.1690 75° East 375 432 16,700 -1,569 Descending FlightAware ADS-B
Sat 01:27:05 PM 38.8390 -76.1020 75° East 374 430 15,900 -788 Descending FlightAware ADS-B
Sat 01:28:51 PM 38.8840 -75.8810 75° East 364 419 14,900 -492 Descending FlightAware ADS-B
Sat 01:29:07 PM 38.8940 -75.8470 69° East 363 418 14,900  Level FlightAware ADS-B
Sat 01:29:11 PM 38.8960 -75.8420 63° Northeast 363 418 14,900  Level FlightAware ADS-B
Sat 01:29:21 PM 38.9080 -75.8230 51° Northeast 360 414 14,900  Level FlightAware ADS-B
Sat 01:29:29 PM 38.9190 -75.8130 35° Northeast 357 411 14,900  Level FlightAware ADS-B
Sat 01:29:35 PM 38.9270 -75.8050 38° Northeast 358 412 14,900  Level FlightAware ADS-B
Sat 01:29:44 PM 38.9390 -75.7940 35° Northeast 359 413 14,900  Level FlightAware ADS-B
Sat 01:30:04 PM 38.9650 -75.7700 36° Northeast 360 414 14,900  Level FlightAware ADS-B
Sat 01:30:09 PM 38.9710 -75.7640 38° Northeast 360 414 14,900  Level FlightAware ADS-B
Sat 01:30:20 PM 38.9850 -75.7500 38° Northeast 359 413 14,900  Level FlightAware ADS-B
Sat 01:30:24 PM 38.9890 -75.7460 38° Northeast 359 413 14,900  Level FlightAware ADS-B
Sat 01:30:29 PM 38.9980 -75.7380 35° Northeast 359 413 14,900  Level FlightAware ADS-B
Sat 01:30:39 PM 39.0110 -75.7260 36° Northeast 359 413 14,900  Level FlightAware ADS-B
Sat 01:30:44 PM 39.0180 -75.7190 38° Northeast 359 413 14,900  Level FlightAware ADS-B
Sat 01:30:49 PM 39.0250 -75.7130 34° Northeast 359 413 14,900  Level FlightAware ADS-B
Sat 01:30:59 PM 39.0370 -75.7010 38° Northeast 359 413 14,900  Level FlightAware ADS-B
Sat 01:31:05 PM 39.0400 -75.6980 38° Northeast 359 413 14,900 -375 Level FlightAware ADS-B
Sat 01:31:15 PM 39.0620 -75.6820 29° Northeast 349 402 14,800 -818 Descending FlightAware ADS-B
Sat 01:31:27 PM 39.0780 -75.6770 14° North 342 394 14,600 -1,200 Descending FlightAware ADS-B
Sat 01:31:35 PM 39.0910 -75.6750 North 338 389 14,400 -1,385 Descending FlightAware ADS-B
Sat 01:31:40 PM 39.1000 -75.6740 North 343 395 14,300 -1,200 Descending FlightAware ADS-B
Sat 01:31:50 PM 39.1150 -75.6720 North 338 389 14,100 -1,200 Descending FlightAware ADS-B
Sat 01:32:00 PM 39.1320 -75.6700 North 325 374 13,900 -1,200 Descending FlightAware ADS-B
Sat 01:32:10 PM 39.1470 -75.6690 North 320 368 13,700 -1,200 Descending FlightAware ADS-B
Sat 01:32:15 PM 39.1540 -75.6680 North 326 375 13,600 -1,200 Descending FlightAware ADS-B
Sat 01:32:20 PM 39.1620 -75.6670 North 324 373 13,500 -1,200 Descending FlightAware ADS-B
Sat 01:32:30 PM 39.1730 -75.6660 North 321 369 13,300 -1,200 Descending FlightAware ADS-B
Sat 01:32:40 PM 39.1920 -75.6640 North 308 354 13,100 -1,200 Descending FlightAware ADS-B
Sat 01:32:50 PM 39.2060 -75.6620 North 305 351 12,900 -1,200 Descending FlightAware ADS-B
Sat 01:33:00 PM 39.2190 -75.6610 North 309 356 12,700 -1,200 Descending FlightAware ADS-B
Sat 01:33:05 PM 39.2270 -75.6600 North 307 353 12,600 -1,200 Descending FlightAware ADS-B
Sat 01:33:10 PM 39.2350 -75.6590 North 306 352 12,500 -1,200 Descending FlightAware ADS-B
Sat 01:33:20 PM 39.2480 -75.6570 North 294 338 12,300 -1,200 Descending FlightAware ADS-B
Sat 01:33:35 PM 39.2660 -75.6560 North 292 336 12,000 -1,043 Descending FlightAware ADS-B
Sat 01:33:43 PM 39.2750 -75.6540 10° North 292 336 11,900 -333 Descending FlightAware ADS-B
Sat 01:33:53 PM 39.2920 -75.6450 22° Northeast 297 342 11,900  Level FlightAware ADS-B
Sat 01:34:03 PM 39.3040 -75.6360 30° Northeast 306 352 11,900  Level FlightAware ADS-B
Sat 01:34:14 PM 39.3150 -75.6260 35° Northeast 309 356 11,900  Level FlightAware ADS-B
Sat 01:34:24 PM 39.3280 -75.6150 33° Northeast 309 356 11,900  Level FlightAware ADS-B
Sat 01:34:29 PM 39.3340 -75.6100 33° Northeast 308 354 11,900  Level FlightAware ADS-B
Sat 01:34:34 PM 39.3410 -75.6040 34° Northeast 308 354 11,900  Level FlightAware ADS-B
Sat 01:34:44 PM 39.3530 -75.5930 35° Northeast 307 353 11,900  Level FlightAware ADS-B
Sat 01:34:49 PM 39.3590 -75.5880 33° Northeast 307 353 11,900  Level FlightAware ADS-B
Sat 01:34:59 PM 39.3690 -75.5800 32° Northeast 307 353 11,900  Level FlightAware ADS-B
Sat 01:35:04 PM 39.3780 -75.5720 34° Northeast 306 352 11,900  Level FlightAware ADS-B
Sat 01:35:09 PM 39.3850 -75.5690 18° North 297 342 11,900  Level FlightAware ADS-B
Sat 01:35:19 PM 39.3960 -75.5650 16° North 295 339 11,900  Level FlightAware ADS-B
Sat 01:35:24 PM 39.4020 -75.5630 14° North 294 338 11,900  Level FlightAware ADS-B
Sat 01:35:29 PM 39.4100 -75.5610 11° North 295 339 11,900  Level FlightAware ADS-B
Sat 01:35:39 PM 39.4250 -75.5580 North 294 338 11,900  Level FlightAware ADS-B
Sat 01:35:44 PM 39.4320 -75.5570 North 294 338 11,900  Level FlightAware ADS-B
Sat 01:35:49 PM 39.4390 -75.5550 12° North 294 338 11,900  Level FlightAware ADS-B
Sat 01:35:59 PM 39.4520 -75.5520 10° North 294 338 11,900  Level FlightAware ADS-B
Sat 01:36:09 PM 39.4670 -75.5490 North 294 338 11,900  Level FlightAware ADS-B
Sat 01:36:14 PM 39.4730 -75.5470 14° North 294 338 11,900  Level FlightAware ADS-B
Sat 01:36:19 PM 39.4790 -75.5450 14° North 295 339 11,900  Level FlightAware ADS-B
Sat 01:36:29 PM 39.4920 -75.5390 20° North 305 351 11,900  Level FlightAware ADS-B
Sat 01:36:34 PM 39.4980 -75.5350 27° Northeast 297 342 11,900  Level FlightAware ADS-B
Sat 01:36:39 PM 39.5040 -75.5300 33° Northeast 298 343 11,900  Level FlightAware ADS-B
Sat 01:36:47 PM 39.5110 -75.5230 38° Northeast 299 344 11,900  Level FlightAware ADS-B
Sat 01:36:58 PM 39.5250 -75.5110 33° Northeast 299 344 11,900  Level FlightAware ADS-B
Sat 01:37:02 PM 39.5320 -75.5040 38° Northeast 299 344 11,900  Level FlightAware ADS-B
Sat 01:37:07 PM 39.5380 -75.4990 33° Northeast 299 344 11,900  Level FlightAware ADS-B
Sat 01:37:17 PM 39.5490 -75.4890 35° Northeast 299 344 11,900  Level FlightAware ADS-B
Sat 01:37:22 PM 39.5550 -75.4830 38° Northeast 299 344 11,900  Level FlightAware ADS-B
Sat 01:37:32 PM 39.5670 -75.4720 35° Northeast 299 344 11,900  Level FlightAware ADS-B
Sat 01:37:37 PM 39.5720 -75.4680 32° Northeast 299 344 11,900  Level FlightAware ADS-B
Sat 01:37:42 PM 39.5760 -75.4640 38° Northeast 299 344 11,900  Level FlightAware ADS-B
Sat 01:37:47 PM 39.5830 -75.4580 33° Northeast 299 344 11,900  Level FlightAware ADS-B
Sat 01:37:59 PM 39.5920 -75.4500 34° Northeast 298 343 11,900 -571 Level FlightAware ADS-B
Sat 01:38:08 PM 39.6070 -75.4360 36° Northeast 302 348 11,700 -1,535 Descending FlightAware ADS-B
Sat 01:38:42 PM 39.6410 -75.4040 36° Northeast 299 344 10,800 -1,594 Descending FlightAware ADS-B
Sat 01:39:12 PM 39.6800 -75.3680 35° Northeast 299 344 10,000 -982 Descending FlightAware ADS-B
Sat 01:39:37 PM 39.7090 -75.3410 36° Northeast 296 341 9,900 -130 Descending FlightAware ADS-B
Sat 01:39:58 PM 39.7310 -75.3210 35° Northeast 296 341 9,900 -150 Level FlightAware ADS-B
Sat 01:40:17 PM 39.7530 -75.3010 35° Northeast 286 329 9,800 -923 Descending FlightAware ADS-B
Sat 01:40:37 PM 39.7750 -75.2810 35° Northeast 283 326 9,300 -1,317 Descending FlightAware ADS-B
Sat 01:40:58 PM 39.7950 -75.2610 38° Northeast 282 325 8,900 -1,333 Descending FlightAware ADS-B
Sat 01:41:22 PM 39.8200 -75.2380 35° Northeast 278 320 8,300 -1,636 Descending FlightAware ADS-B
Sat 01:41:42 PM 39.8430 -75.2160 36° Northeast 277 319 7,700 -1,800 Descending FlightAware ADS-B
Sat 01:42:02 PM 39.8670 -75.1950 34° Northeast 282 325 7,100 -1,714 Descending FlightAware ADS-B
Sat 01:42:17 PM 39.8830 -75.1800 36° Northeast 277 319 6,700 -1,543 Descending FlightAware ADS-B
Sat 01:42:37 PM 39.9030 -75.1610 36° Northeast 275 316 6,200 -1,500 Descending FlightAware ADS-B
Sat 01:42:57 PM 39.9230 -75.1430 35° Northeast 274 315 5,700 -1,714 Descending FlightAware ADS-B
Sat 01:43:19 PM 39.9460 -75.1210 36° Northeast 267 307 5,000 -1,784 Descending FlightAware ADS-B
Sat 01:43:34 PM 39.9610 -75.1070 36° Northeast 267 307 4,600 -1,543 Descending FlightAware ADS-B
Sat 01:43:54 PM 39.9820 -75.0870 36° Northeast 264 304 4,100 -1,500 Descending FlightAware ADS-B
Sat 01:44:14 PM 40.0020 -75.0680 36° Northeast 258 297 3,600 -1,080 Descending FlightAware ADS-B
Sat 01:44:44 PM 40.0310 -75.0410 35° Northeast 247 284 3,200 -720 Descending FlightAware ADS-B
Sat 01:45:04 PM 40.0500 -75.0240 34° Northeast 240 276 3,000 -439 Descending FlightAware ADS-B
Sat 01:45:25 PM 40.0670 -75.0070 37° Northeast 223 257 2,900 -130 Descending FlightAware ADS-B
Sat 01:45:50 PM 40.0880 -74.9880 35° Northeast 223 257 2,900  Level FlightAware ADS-B
Sat 01:46:10 PM 40.1060 -74.9700 37° Northeast 223 257 2,900  Level FlightAware ADS-B
Sat 01:46:37 PM 40.1260 -74.9520 35° Northeast 225 259 2,900 -400 Level FlightAware ADS-B
Sat 01:46:55 PM 40.1460 -74.9330 36° Northeast 229 264 2,600 -933 Descending FlightAware ADS-B
Sat 01:47:22 PM 40.1700 -74.9100 36° Northeast 224 258 2,200 -783 Descending FlightAware ADS-B
Sat 01:47:41 PM 40.1840 -74.8970 35° Northeast 217 250 2,000 -340 Descending FlightAware ADS-B
Sat 01:48:15 PM 40.2090 -74.8750 34° Northeast 215 247 1,900 -732 Descending FlightAware ADS-B
Sat 01:48:22 PM 40.2130 -74.8660 60° Northeast 180 207 1,500 -2,500 Descending FlightAware ADS-B
Sat 01:48:27 PM 40.2150 -74.8630 49° Northeast 169 194 1,400 -200 Descending FlightAware ADS-B
Sat 01:48:52 PM 40.2310 -74.8390 49° Northeast 198 228 1,400  Level FlightAware ADS-B
Sat 01:49:20 PM 40.2450 -74.8170 50° Northeast 198 228 1,400  Level FlightAware ADS-B
Sat 01:50:00 PM 40.2630 -74.7810 57° Northeast 148 170 1,400  Level FlightAware ADS-B
Sat 01:50:29 PM 40.2770 -74.7610 47° Northeast 149 171 1,400 -162 Level FlightAware ADS-B
Sat 01:50:37 PM 40.2820 -74.7570 31° Northeast 147 169 1,300 -968 Descending FlightAware ADS-B
Sat 01:51:00 PM 40.2960 -74.7640 339° North 141 162 900 -490 Descending FlightAware ADS-B
Sat 01:51:26 PM 40.3070 -74.7760 320° Northwest 141 162 900  Level FlightAware ADS-B

Login

Don't have an account? Register now (free) for customized features, flight alerts, and more!